createdAt,value
2018-04-14T00:01:04.530Z,75.00
2018-04-14T00:03:32.094Z,75.30
2018-04-14T00:05:59.854Z,75.30
2018-04-14T00:08:27.619Z,75.20
2018-04-14T00:10:55.458Z,75.30
2018-04-14T00:13:22.926Z,75.40
2018-04-14T00:15:50.590Z,75.20
2018-04-14T00:18:18.353Z,75.30
2018-04-14T00:20:46.118Z,75.30
2018-04-14T00:23:13.782Z,75.20
2018-04-14T00:25:41.258Z,75.30
2018-04-14T00:28:08.739Z,76.00
2018-04-14T00:30:36.204Z,75.30
2018-04-14T00:33:03.869Z,75.20
2018-04-14T00:35:31.357Z,75.20
2018-04-14T00:37:58.930Z,75.10
2018-04-14T00:40:26.410Z,74.90
2018-04-14T00:42:54.077Z,74.70
2018-04-14T00:45:21.530Z,75.00
2018-04-14T00:47:48.998Z,75.00
2018-04-14T00:50:16.466Z,74.80
2018-04-14T00:52:43.934Z,74.80
2018-04-14T00:55:11.394Z,74.90
2018-04-14T00:57:38.909Z,75.00
2018-04-14T01:00:06.346Z,74.70
2018-04-14T01:02:34.118Z,74.60
2018-04-14T01:05:01.882Z,74.80
2018-04-14T01:07:29.349Z,74.60
2018-04-14T01:09:56.810Z,74.50
2018-04-14T01:12:24.567Z,74.70
2018-04-14T01:14:52.042Z,74.70
2018-04-14T01:17:19.497Z,74.70
2018-04-14T01:19:46.984Z,74.70
2018-04-14T01:22:14.446Z,74.90
2018-04-14T01:24:41.926Z,74.60
2018-04-14T01:27:09.403Z,74.40
2018-04-14T01:29:37.066Z,74.60
2018-04-14T01:32:04.522Z,74.60
2018-04-14T01:34:32.201Z,74.70
2018-04-14T01:36:59.658Z,74.70
2018-04-14T01:39:27.189Z,74.60
2018-04-14T01:41:54.666Z,74.60
2018-04-14T01:44:22.341Z,74.60
2018-04-14T01:46:49.806Z,74.60
2018-04-14T01:49:17.291Z,74.50
2018-04-14T01:51:44.786Z,74.60
2018-04-14T01:54:12.425Z,74.40
2018-04-14T01:56:39.922Z,75.70
2018-04-14T01:59:07.411Z,75.60
2018-04-14T02:01:34.918Z,75.70
2018-04-14T02:04:02.370Z,75.50
2018-04-14T02:06:29.942Z,75.40
2018-04-14T02:08:57.406Z,75.60
2018-04-14T02:11:25.633Z,75.90
2018-04-14T02:13:53.430Z,75.70
2018-04-14T02:16:21.194Z,75.40
2018-04-14T02:18:48.962Z,75.30
2018-04-14T02:21:16.723Z,75.30
2018-04-14T02:23:44.499Z,75.60
2018-04-14T02:26:12.244Z,75.80
2018-04-14T02:28:40.015Z,75.70
2018-04-14T02:31:07.478Z,75.70
2018-04-14T02:33:35.106Z,75.80
2018-04-14T02:36:02.623Z,75.60
2018-04-14T02:38:30.143Z,75.70
2018-04-14T02:40:57.598Z,75.50
2018-04-14T02:43:25.072Z,75.50
2018-04-14T02:45:52.542Z,75.40
2018-04-14T02:48:20.198Z,75.30
2018-04-14T02:50:47.654Z,75.00
2018-04-14T02:53:15.122Z,75.30
2018-04-14T02:55:42.647Z,75.50
2018-04-14T02:58:10.293Z,75.60
2018-04-14T03:00:37.786Z,75.70
2018-04-14T03:03:05.276Z,75.90
2018-04-14T03:05:32.717Z,75.90
2018-04-14T03:08:00.183Z,75.90
2018-04-14T03:10:27.694Z,75.70
2018-04-14T03:12:55.453Z,75.50
2018-04-14T03:15:22.914Z,75.50
2018-04-14T03:17:50.570Z,75.40
2018-04-14T03:20:18.134Z,75.60
2018-04-14T03:22:45.601Z,75.70
2018-04-14T03:25:13.234Z,75.80
2018-04-14T03:27:40.822Z,75.60
2018-04-14T03:30:08.275Z,75.70
2018-04-14T03:32:35.938Z,75.70
2018-04-14T03:35:03.802Z,75.60
2018-04-14T03:37:31.566Z,75.60
2018-04-14T03:39:59.330Z,75.80
2018-04-14T03:42:26.983Z,75.90
2018-04-14T03:44:54.454Z,75.80
2018-04-14T03:47:21.942Z,75.70
2018-04-14T03:49:49.422Z,75.80
2018-04-14T03:52:16.914Z,76.00
2018-04-14T03:54:44.561Z,76.00
2018-04-14T03:57:12.037Z,75.70
2018-04-14T03:59:39.506Z,75.80
2018-04-14T04:02:06.962Z,76.00
2018-04-14T04:04:34.501Z,75.90
2018-04-14T04:07:02.155Z,75.80
2018-04-14T04:09:29.614Z,75.70
2018-04-14T04:11:58.102Z,75.50
2018-04-14T04:14:25.557Z,75.70
2018-04-14T04:16:53.321Z,75.50
2018-04-14T04:19:32.651Z,75.60
2018-04-14T04:22:11.856Z,75.60
2018-04-14T04:24:51.208Z,75.50
2018-04-14T04:27:18.706Z,75.40
2018-04-14T04:29:46.321Z,75.60
2018-04-14T04:32:13.998Z,75.50
2018-04-14T04:34:41.478Z,75.70
2018-04-14T04:37:10.191Z,75.80
2018-04-14T04:39:37.731Z,75.90
2018-04-14T04:42:05.373Z,75.80
2018-04-14T04:44:34.406Z,75.60
2018-04-14T04:47:01.969Z,75.60
2018-04-14T04:49:29.565Z,75.70
2018-04-14T04:51:57.130Z,75.90
2018-04-14T04:54:24.630Z,75.90
2018-04-14T04:56:52.150Z,75.90
2018-04-14T04:59:19.673Z,76.00
2018-04-14T05:01:47.358Z,76.10
2018-04-14T05:04:15.050Z,75.70
2018-04-14T05:06:42.651Z,75.90
2018-04-14T05:09:10.211Z,76.00
2018-04-14T05:11:37.714Z,75.70
2018-04-14T05:14:05.414Z,76.00
2018-04-14T05:16:33.327Z,76.10
2018-04-14T05:19:00.869Z,76.10
2018-04-14T05:21:28.472Z,76.10
2018-04-14T05:23:56.022Z,75.50
2018-04-14T05:26:23.863Z,76.10
2018-04-14T05:28:51.382Z,76.20
2018-04-14T05:31:19.908Z,76.10
2018-04-14T05:33:47.514Z,76.10
2018-04-14T05:36:15.052Z,76.10
2018-04-14T05:38:42.573Z,75.90
2018-04-14T05:41:10.133Z,75.80
2018-04-14T05:43:37.712Z,75.80
2018-04-14T05:46:05.247Z,75.90
2018-04-14T05:48:32.835Z,75.90
2018-04-14T05:51:01.122Z,76.00
2018-04-14T05:53:29.453Z,75.80
2018-04-14T05:55:56.987Z,75.80
2018-04-14T05:58:24.514Z,75.70
2018-04-14T06:00:52.043Z,75.80
2018-04-14T06:03:19.554Z,75.70
2018-04-14T06:05:47.216Z,75.70
2018-04-14T06:08:14.732Z,75.50
2018-04-14T06:10:42.245Z,75.40
2018-04-14T06:13:09.841Z,74.10
2018-04-14T06:15:37.377Z,73.80
2018-04-14T06:18:05.154Z,73.60
2018-04-14T06:20:32.824Z,73.60
2018-04-14T06:23:00.337Z,73.70
2018-04-14T06:25:27.878Z,73.30
2018-04-14T06:27:55.417Z,73.00
2018-04-14T06:30:22.966Z,73.60
2018-04-14T06:32:50.455Z,72.50
2018-04-14T06:35:18.136Z,72.30
2018-04-14T06:37:46.246Z,72.00
2018-04-14T06:40:13.909Z,71.70
2018-04-14T06:42:41.651Z,71.70
2018-04-14T06:45:09.174Z,71.50
2018-04-14T06:47:37.038Z,71.40
2018-04-14T06:50:04.935Z,71.30
2018-04-14T06:52:32.399Z,70.90
2018-04-14T06:54:59.879Z,70.80
2018-04-14T06:57:27.399Z,70.60
2018-04-14T06:59:54.919Z,70.50
2018-04-14T07:02:22.424Z,70.40
2018-04-14T07:04:49.953Z,70.20
2018-04-14T07:07:18.265Z,70.20
2018-04-14T07:09:45.981Z,70.00
2018-04-14T07:12:13.496Z,69.80
2018-04-14T07:14:41.010Z,69.60
2018-04-14T07:17:09.284Z,69.50
2018-04-14T07:19:36.823Z,69.40
2018-04-14T07:22:04.467Z,69.30
2018-04-14T07:24:31.979Z,69.10
2018-04-14T07:27:00.344Z,68.90
2018-04-14T07:29:27.872Z,68.80
2018-04-14T07:31:55.335Z,68.70
2018-04-14T07:34:23.002Z,68.50
2018-04-14T07:36:50.787Z,68.40
2018-04-14T07:39:18.301Z,68.30
2018-04-14T07:41:45.806Z,68.00
2018-04-14T07:44:13.521Z,67.60
2018-04-14T07:46:41.022Z,67.60
2018-04-14T07:49:09.521Z,67.30
2018-04-14T07:51:37.157Z,67.90
2018-04-14T07:54:04.678Z,67.00
2018-04-14T07:56:32.342Z,66.90
2018-04-14T07:59:00.059Z,66.60
2018-04-14T08:01:27.574Z,66.60
2018-04-14T08:03:55.142Z,66.40
2018-04-14T08:06:22.659Z,66.30
2018-04-14T08:08:50.146Z,66.40
2018-04-14T08:11:17.741Z,66.30
2018-04-14T08:13:45.972Z,66.10
2018-04-14T08:16:13.528Z,66.00
2018-04-14T08:18:41.062Z,65.80
2018-04-14T08:21:09.336Z,65.70
2018-04-14T08:23:37.069Z,66.40
2018-04-14T08:26:04.825Z,65.80
2018-04-14T08:28:32.482Z,65.60
2018-04-14T08:31:00.041Z,65.50
2018-04-14T08:33:27.628Z,65.30
2018-04-14T08:35:55.295Z,65.20
2018-04-14T08:38:22.839Z,65.20
2018-04-14T08:40:51.143Z,64.80
2018-04-14T08:43:18.647Z,64.70
2018-04-14T08:45:46.218Z,64.50
2018-04-14T08:48:13.837Z,64.20
2018-04-14T08:50:41.392Z,64.00
2018-04-14T08:53:09.028Z,63.80
2018-04-14T08:55:36.614Z,63.60
2018-04-14T08:58:04.175Z,63.40
2018-04-14T09:00:32.445Z,63.60
2018-04-14T09:03:00.654Z,62.90
2018-04-14T09:05:28.273Z,62.40
2018-04-14T09:07:56.053Z,61.90
2018-04-14T09:10:23.621Z,61.30
2018-04-14T09:12:51.162Z,60.90
2018-04-14T09:15:18.727Z,60.50
2018-04-14T09:17:46.232Z,60.00
2018-04-14T09:20:13.704Z,59.70
2018-04-14T09:22:41.997Z,59.30
2018-04-14T09:25:09.630Z,59.20
2018-04-14T09:27:37.219Z,58.90
2018-04-14T09:30:04.742Z,58.70
2018-04-14T09:32:32.284Z,58.30
2018-04-14T09:34:59.869Z,57.90
2018-04-14T09:37:27.323Z,57.50
2018-04-14T09:39:55.604Z,56.80
2018-04-14T09:42:23.088Z,56.80
2018-04-14T09:44:50.602Z,56.60
2018-04-14T09:47:18.097Z,56.40
2018-04-14T09:49:45.860Z,56.30
2018-04-14T09:52:14.107Z,55.90
2018-04-14T09:54:41.602Z,55.80
2018-04-14T09:57:09.120Z,55.60
2018-04-14T09:59:37.389Z,55.60
2018-04-14T10:02:04.889Z,55.10
2018-04-14T10:04:32.414Z,54.80
2018-04-14T10:07:00.057Z,54.50
2018-04-14T10:09:27.567Z,54.20
2018-04-14T10:11:55.691Z,54.00
2018-04-14T10:14:23.270Z,54.00
2018-04-14T10:16:50.762Z,53.80
2018-04-14T10:19:18.327Z,53.60
2018-04-14T10:21:45.827Z,53.50
2018-04-14T10:24:14.121Z,53.10
2018-04-14T10:26:41.698Z,53.10
2018-04-14T10:29:09.965Z,52.80
2018-04-14T10:31:37.510Z,52.80
2018-04-14T10:34:05.783Z,52.50
2018-04-14T10:36:34.097Z,52.50
2018-04-14T10:39:01.605Z,52.30
2018-04-14T10:41:29.093Z,51.90
2018-04-14T10:43:56.706Z,51.70
2018-04-14T10:46:24.199Z,51.40
2018-04-14T10:48:52.413Z,51.10
2018-04-14T10:51:19.882Z,51.10
2018-04-14T10:53:47.343Z,50.90
2018-04-14T10:56:14.806Z,50.80
2018-04-14T10:58:42.274Z,50.60
2018-04-14T11:01:09.791Z,50.50
2018-04-14T11:03:37.266Z,50.30
2018-04-14T11:06:04.754Z,50.00
2018-04-14T11:08:32.222Z,50.10
2018-04-14T11:10:59.770Z,49.90
2018-04-14T11:13:27.535Z,49.70
2018-04-14T11:15:55.166Z,49.40
2018-04-14T11:18:22.758Z,49.20
2018-04-14T11:20:50.514Z,49.00
2018-04-14T11:23:18.003Z,49.10
2018-04-14T11:25:45.479Z,49.10
2018-04-14T11:28:13.194Z,49.00
2018-04-14T11:30:40.830Z,49.20
2018-04-14T11:33:08.313Z,49.30
2018-04-14T11:35:35.786Z,49.40
2018-04-14T11:38:03.333Z,49.50
2018-04-14T11:40:31.091Z,49.40
2018-04-14T11:42:58.742Z,49.40
2018-04-14T11:45:26.221Z,49.50
2018-04-14T11:47:53.674Z,49.10
2018-04-14T11:50:21.910Z,48.40
2018-04-14T11:52:49.506Z,48.40
2018-04-14T11:55:16.974Z,48.20
2018-04-14T11:57:44.427Z,48.00
2018-04-14T12:00:11.916Z,47.80
2018-04-14T12:02:39.381Z,47.60
2018-04-14T12:05:06.843Z,47.60
2018-04-14T12:07:34.371Z,47.60
2018-04-14T12:10:02.104Z,47.60
2018-04-14T12:12:29.751Z,47.50
2018-04-14T12:14:57.377Z,47.20
2018-04-14T12:17:24.927Z,47.00
2018-04-14T12:19:52.561Z,46.80
2018-04-14T12:22:20.063Z,46.60
2018-04-14T12:24:47.528Z,46.40
2018-04-14T12:27:15.002Z,46.20
2018-04-14T12:29:42.686Z,46.30
2018-04-14T12:32:10.150Z,46.20
2018-04-14T12:34:38.526Z,45.90
2018-04-14T12:37:06.003Z,45.90
2018-04-14T12:39:33.467Z,45.50
2018-04-14T12:42:01.040Z,44.90
2018-04-14T12:44:28.498Z,44.60
2018-04-14T12:46:55.966Z,44.40
2018-04-14T12:49:23.431Z,44.30
2018-04-14T12:51:51.178Z,44.30
2018-04-14T12:54:18.670Z,44.10
2018-04-14T12:56:46.144Z,43.80
2018-04-14T12:59:13.682Z,43.60
2018-04-14T13:01:41.387Z,43.70
2018-04-14T13:04:08.841Z,43.50
2018-04-14T13:06:36.378Z,43.30
2018-04-14T13:09:03.846Z,43.10
2018-04-14T13:11:31.470Z,43.40
2018-04-14T13:13:58.974Z,44.10
2018-04-14T13:16:26.423Z,44.00
2018-04-14T13:18:53.978Z,43.70
2018-04-14T13:21:21.460Z,43.40
2018-04-14T13:23:49.202Z,42.90
2018-04-14T13:26:17.045Z,42.50
2018-04-14T13:28:44.585Z,42.10
2018-04-14T13:31:12.055Z,41.90
2018-04-14T13:33:39.575Z,41.60
2018-04-14T13:36:07.050Z,41.10
2018-04-14T13:38:34.517Z,40.80
2018-04-14T13:41:01.998Z,40.30
2018-04-14T13:43:29.793Z,39.90
2018-04-14T13:45:57.445Z,39.70
2018-04-14T13:48:24.906Z,39.60
2018-04-14T13:50:52.370Z,39.40
2018-04-14T13:53:19.829Z,38.70
2018-04-14T13:55:47.309Z,38.10
2018-04-14T13:58:14.775Z,37.80
2018-04-14T14:00:42.246Z,37.10
2018-04-14T14:03:10.023Z,35.40
2018-04-14T14:05:39.002Z,32.80
2018-04-14T14:08:06.659Z,32.70
2018-04-14T14:10:34.170Z,32.20
2018-04-14T14:13:01.641Z,32.00
2018-04-14T14:15:29.130Z,31.90
2018-04-14T14:17:56.571Z,32.30
2018-04-14T14:20:24.035Z,32.10
2018-04-14T14:22:51.522Z,31.40
2018-04-14T14:25:19.165Z,30.60
2018-04-14T14:27:46.674Z,29.60
2018-04-14T14:30:14.137Z,28.90
2018-04-14T14:32:41.660Z,28.70
2018-04-14T14:35:09.115Z,28.40
2018-04-14T14:37:36.763Z,27.90
2018-04-14T14:40:04.222Z,27.40
2018-04-14T14:42:31.826Z,27.60
2018-04-14T14:44:59.546Z,26.70
2018-04-14T14:47:27.026Z,25.70
2018-04-14T14:50:00.037Z,24.90
2018-04-14T14:52:27.974Z,24.70
2018-04-14T14:54:55.413Z,24.60
2018-04-14T14:57:22.890Z,24.50
2018-04-14T14:59:50.446Z,24.40
2018-04-14T15:02:18.691Z,23.70
2018-04-14T15:04:46.192Z,23.10
2018-04-14T15:07:13.689Z,22.90
2018-04-14T15:09:41.170Z,22.60
2018-04-14T15:12:08.684Z,22.30
2018-04-14T15:14:36.174Z,22.70
2018-04-14T15:17:03.667Z,23.50
2018-04-14T15:19:31.159Z,23.80
2018-04-14T15:21:58.644Z,23.70
2018-04-14T15:24:26.148Z,24.30
2018-04-14T15:26:53.635Z,24.80
2018-04-14T15:29:21.240Z,25.60
2018-04-14T15:31:48.749Z,26.30
2018-04-14T15:34:16.272Z,27.30
2018-04-14T15:36:43.739Z,28.20
2018-04-14T15:39:11.235Z,28.40
2018-04-14T15:41:38.788Z,28.60
2018-04-14T15:44:06.318Z,28.60
2018-04-14T15:46:34.601Z,28.50
2018-04-14T15:49:02.200Z,28.40
2018-04-14T15:51:29.688Z,28.50
2018-04-14T15:53:57.170Z,28.50
2018-04-14T15:56:24.731Z,28.70
2018-04-14T15:58:52.268Z,28.90
2018-04-14T16:01:19.753Z,29.00
2018-04-14T16:03:48.035Z,29.30
2018-04-14T16:06:15.513Z,29.20
2018-04-14T16:08:43.001Z,29.20
2018-04-14T16:11:10.498Z,29.20
2018-04-14T16:13:39.292Z,29.20
2018-04-14T16:16:06.790Z,29.10
2018-04-14T16:18:34.263Z,29.20
2018-04-14T16:21:02.515Z,29.70
2018-04-14T16:23:29.996Z,29.60
2018-04-14T16:25:57.521Z,30.00
2018-04-14T16:28:25.050Z,30.00
2018-04-14T16:30:52.555Z,30.10
2018-04-14T16:33:20.031Z,30.20
2018-04-14T16:35:47.619Z,30.30
2018-04-14T16:38:15.088Z,31.00
2018-04-14T16:40:42.570Z,31.50
2018-04-14T16:43:10.094Z,31.70
2018-04-14T16:45:37.606Z,32.00
2018-04-14T16:48:05.230Z,32.20
2018-04-14T16:50:32.682Z,32.50
2018-04-14T16:53:00.186Z,32.90
2018-04-14T16:55:27.667Z,33.30
2018-04-14T16:57:55.152Z,33.60
2018-04-14T17:00:22.635Z,33.90
2018-04-14T17:02:50.117Z,34.10
2018-04-14T17:05:17.754Z,34.20
2018-04-14T17:07:45.278Z,34.50
2018-04-14T17:10:12.816Z,34.70
2018-04-14T17:12:40.306Z,34.80
2018-04-14T17:15:08.564Z,35.30
2018-04-14T17:17:36.059Z,35.20
2018-04-14T17:20:03.541Z,35.40
2018-04-14T17:22:31.053Z,35.60
2018-04-14T17:24:59.352Z,36.30
2018-04-14T17:27:26.884Z,36.20
2018-04-14T17:29:54.341Z,36.60
2018-04-14T17:32:22.614Z,37.20
2018-04-14T17:34:50.086Z,37.20
2018-04-14T17:37:17.621Z,37.50
2018-04-14T17:39:45.146Z,37.60
2018-04-14T17:42:12.646Z,37.80
2018-04-14T17:44:40.154Z,38.10
2018-04-14T17:47:07.616Z,38.40
2018-04-14T17:49:35.119Z,39.20
2018-04-14T17:52:02.596Z,39.00
2018-04-14T17:54:30.111Z,39.30
2018-04-14T17:56:57.802Z,39.60
2018-04-14T17:59:25.347Z,40.00
2018-04-14T18:01:52.807Z,40.30
2018-04-14T18:04:21.090Z,41.20
2018-04-14T18:06:48.559Z,41.20
2018-04-14T18:09:16.055Z,41.40
2018-04-14T18:11:43.526Z,41.70
2018-04-14T18:14:11.118Z,41.90
2018-04-14T18:16:39.363Z,42.50
2018-04-14T18:19:06.889Z,42.40
2018-04-14T18:21:34.355Z,42.80
2018-04-14T18:24:01.821Z,43.10
2018-04-14T18:26:29.315Z,43.50
2018-04-14T18:28:56.877Z,43.70
2018-04-14T18:31:24.348Z,44.00
2018-04-14T18:33:51.837Z,44.30
2018-04-14T18:36:19.322Z,44.60
2018-04-14T18:38:46.810Z,44.80
2018-04-14T18:41:15.082Z,45.10
2018-04-14T18:43:43.255Z,45.40
2018-04-14T18:46:10.918Z,45.70
2018-04-14T18:48:38.409Z,46.10
2018-04-14T18:51:05.902Z,46.60
2018-04-14T18:53:33.373Z,46.90
2018-04-14T18:56:00.983Z,47.40
2018-04-14T18:58:28.451Z,47.90
2018-04-14T19:00:55.951Z,48.20
2018-04-14T19:03:23.438Z,48.60
2018-04-14T19:05:50.929Z,48.90
2018-04-14T19:08:18.401Z,49.20
2018-04-14T19:10:45.887Z,49.30
2018-04-14T19:13:13.484Z,49.50
2018-04-14T19:15:41.016Z,49.70
2018-04-14T19:18:08.488Z,50.00
2018-04-14T19:20:35.965Z,50.20
2018-04-14T19:23:04.025Z,50.60
2018-04-14T19:25:31.483Z,51.00
2018-04-14T19:27:59.842Z,51.30
2018-04-14T19:30:27.293Z,51.30
2018-04-14T19:32:55.696Z,51.50
2018-04-14T19:35:23.184Z,51.60
2018-04-14T19:37:51.033Z,51.70
2018-04-14T19:40:18.377Z,51.80
2018-04-14T19:42:45.866Z,52.00
2018-04-14T19:45:13.340Z,52.20
2018-04-14T19:47:40.885Z,52.50
2018-04-14T19:50:08.363Z,52.70
2018-04-14T19:52:35.843Z,52.90
2018-04-14T19:55:03.404Z,53.20
2018-04-14T19:57:30.897Z,53.30
2018-04-14T19:59:58.363Z,53.50
2018-04-14T20:02:25.880Z,53.70
2018-04-14T20:04:53.367Z,54.00
2018-04-14T20:07:20.854Z,54.20
2018-04-14T20:09:48.323Z,54.40
2018-04-14T20:12:15.837Z,54.50
2018-04-14T20:14:43.314Z,54.50
2018-04-14T20:17:10.789Z,54.60
2018-04-14T20:19:38.313Z,54.80
2018-04-14T20:22:05.796Z,55.00
2018-04-14T20:24:33.340Z,55.20
2018-04-14T20:27:00.819Z,55.20
2018-04-14T20:29:28.291Z,55.40
2018-04-14T20:31:55.794Z,55.80
2018-04-14T20:34:23.287Z,56.10
2018-04-14T20:36:50.757Z,56.40
2018-04-14T20:39:18.240Z,56.60
2018-04-14T20:41:45.733Z,56.70
2018-04-14T20:44:13.400Z,56.70
2018-04-14T20:46:40.944Z,57.00
2018-04-14T20:49:08.415Z,57.00
2018-04-14T20:51:36.183Z,57.10
2018-04-14T20:54:03.669Z,57.30
2018-04-14T20:56:31.138Z,57.30
2018-04-14T20:58:58.759Z,57.50
2018-04-14T21:01:27.193Z,57.50
2018-04-14T21:03:54.678Z,57.70
2018-04-14T21:06:22.187Z,57.80
2018-04-14T21:08:49.688Z,58.10
2018-04-14T21:11:17.961Z,58.30
2018-04-14T21:13:45.462Z,58.30
2018-04-14T21:16:12.943Z,58.50
2018-04-14T21:18:40.524Z,58.80
2018-04-14T21:21:08.011Z,58.80
2018-04-14T21:23:35.501Z,59.10
2018-04-14T21:26:02.996Z,59.30
2018-04-14T21:28:30.540Z,59.40
2018-04-14T21:30:58.137Z,59.40
2018-04-14T21:33:25.625Z,59.30
2018-04-14T21:35:53.110Z,59.40
2018-04-14T21:38:20.601Z,59.50
2018-04-14T21:40:48.084Z,59.70
2018-04-14T21:43:15.555Z,59.70
2018-04-14T21:45:43.060Z,59.90
2018-04-14T21:48:11.334Z,60.50
2018-04-14T21:50:38.812Z,60.10
2018-04-14T21:53:06.299Z,60.10
2018-04-14T21:55:33.849Z,60.30
2018-04-14T21:58:02.060Z,60.50
2018-04-14T22:00:29.542Z,60.50
2018-04-14T22:02:57.020Z,60.70
2018-04-14T22:05:24.480Z,60.90
2018-04-14T22:07:52.196Z,61.00
2018-04-14T22:10:19.967Z,61.10
2018-04-14T22:12:47.691Z,61.30
2018-04-14T22:15:15.852Z,61.60
2018-04-14T22:17:43.566Z,61.60
2018-04-14T22:20:11.024Z,61.50
2018-04-14T22:22:38.783Z,61.40
2018-04-14T22:25:06.279Z,61.50
2018-04-14T22:27:33.762Z,61.50
2018-04-14T22:30:01.214Z,61.50
2018-04-14T22:32:28.917Z,61.60
2018-04-14T22:34:57.089Z,61.60
2018-04-14T22:37:24.634Z,61.70
2018-04-14T22:39:52.848Z,61.70
2018-04-14T22:42:20.335Z,61.60
2018-04-14T22:44:48.054Z,61.60
2018-04-14T22:47:15.790Z,61.60
2018-04-14T22:49:43.557Z,61.70
2018-04-14T22:52:11.145Z,61.90
2018-04-14T22:54:38.602Z,62.00
2018-04-14T22:57:06.258Z,62.10
2018-04-14T22:59:33.791Z,62.10
2018-04-14T23:02:01.410Z,62.20
2018-04-14T23:04:28.939Z,62.30
2018-04-14T23:06:56.399Z,62.30
2018-04-14T23:09:24.162Z,62.50
2018-04-14T23:11:51.922Z,62.80
2018-04-14T23:14:19.387Z,62.80
2018-04-14T23:16:47.150Z,62.90
2018-04-14T23:19:14.655Z,62.80
2018-04-14T23:21:42.267Z,62.90
2018-04-14T23:24:09.734Z,63.10
2018-04-14T23:26:37.195Z,63.00
2018-04-14T23:29:04.672Z,63.20
2018-04-14T23:31:32.128Z,63.20
2018-04-14T23:33:59.585Z,63.10
2018-04-14T23:36:27.086Z,63.20
2018-04-14T23:38:54.565Z,63.30
2018-04-14T23:41:22.312Z,63.30
2018-04-14T23:43:49.958Z,63.50
2018-04-14T23:46:17.539Z,63.70
2018-04-14T23:48:44.997Z,63.80
2018-04-14T23:51:12.755Z,63.90
2018-04-14T23:53:40.392Z,64.10
2018-04-14T23:56:07.864Z,64.30
2018-04-14T23:58:35.330Z,64.40
